createdAt,value
2023-01-28T00:05:32.723Z,0.82
2023-01-28T00:15:42.461Z,0.82
2023-01-28T00:25:50.829Z,1.00
2023-01-28T00:36:04.797Z,0.90
2023-01-28T00:46:14.897Z,1.58
2023-01-28T00:56:21.971Z,2.42
2023-01-28T01:06:33.709Z,1.75
2023-01-28T01:16:44.781Z,1.15
2023-01-28T01:26:53.594Z,0.90
2023-01-28T01:37:04.834Z,0.70
2023-01-28T01:47:17.489Z,0.70
2023-01-28T02:22:23.347Z,0.70
2023-01-28T02:33:28.085Z,0.70
2023-01-28T02:44:08.177Z,0.68
2023-01-28T02:54:34.399Z,0.47
2023-01-28T03:05:27.039Z,0.70
2023-01-28T03:16:05.646Z,1.00
2023-01-28T03:26:30.987Z,1.10
2023-01-28T03:47:31.426Z,1.10
2023-01-28T03:57:50.551Z,1.00
2023-01-28T04:08:02.191Z,0.85
2023-01-28T04:18:35.866Z,0.75
2023-01-28T04:28:45.334Z,1.10
2023-01-28T04:39:04.551Z,0.90
2023-01-28T04:49:21.531Z,0.90
2023-01-28T04:59:44.724Z,1.00
2023-01-28T05:09:55.930Z,1.20
2023-01-28T05:40:49.949Z,1.00
2023-01-28T05:50:57.341Z,1.10
2023-01-28T06:01:14.946Z,0.90
2023-01-28T06:11:29.379Z,1.00
2023-01-28T06:21:44.135Z,0.95
2023-01-28T06:31:53.838Z,0.90
2023-01-28T06:42:04.804Z,1.00
2023-01-28T06:52:12.031Z,0.95
2023-01-28T07:13:05.598Z,1.40
2023-01-28T07:23:14.207Z,1.20
2023-01-28T07:33:22.544Z,1.23
2023-01-28T07:43:29.389Z,1.10
2023-01-28T07:53:43.943Z,1.20
2023-01-28T08:05:06.407Z,1.05
2023-01-28T08:15:19.392Z,1.00
2023-01-28T08:25:26.581Z,0.80
2023-01-28T08:35:41.135Z,0.88
2023-01-28T08:45:53.540Z,0.80
2023-01-28T08:57:13.261Z,0.93
2023-01-28T09:07:52.780Z,0.70
2023-01-28T09:20:41.003Z,0.90
2023-01-28T09:30:29.951Z,0.93
2023-01-28T09:41:01.894Z,0.80
2023-01-28T09:52:03.279Z,0.77
2023-01-28T13:12:17.002Z,0.45
2023-01-28T13:22:37.677Z,0.50
2023-01-28T14:33:08.299Z,0.52
2023-01-28T18:42:06.491Z,1.30
2023-01-28T18:52:18.961Z,1.25
2023-01-28T19:02:39.677Z,1.20
2023-01-28T19:12:52.973Z,1.00
2023-01-28T19:23:47.968Z,1.20
2023-01-28T19:34:00.121Z,1.38
2023-01-28T19:44:09.318Z,1.33
2023-01-28T19:54:17.071Z,1.30
2023-01-28T20:04:59.660Z,1.00
2023-01-28T20:15:11.423Z,1.27
2023-01-28T20:25:24.775Z,1.00
2023-01-28T20:35:32.065Z,1.10
2023-01-28T20:45:41.561Z,1.10
2023-01-28T20:56:02.556Z,0.98
2023-01-28T21:06:13.548Z,0.77
2023-01-28T21:16:32.800Z,0.63
2023-01-28T21:26:41.440Z,0.63
2023-01-28T21:36:48.483Z,0.80
2023-01-28T21:47:03.104Z,0.60
2023-01-28T21:57:11.276Z,0.80
2023-01-28T22:07:53.687Z,0.73
2023-01-28T22:18:01.657Z,0.70
2023-01-28T22:28:16.906Z,0.70
2023-01-28T22:39:52.944Z,0.80
2023-01-28T22:50:05.434Z,0.65
2023-01-28T23:00:16.021Z,0.70
2023-01-28T23:10:27.294Z,0.70
2023-01-28T23:20:51.132Z,0.90
2023-01-28T23:31:02.565Z,0.73
2023-01-28T23:41:09.928Z,0.80
2023-01-28T23:51:23.425Z,0.80
